Time;durP1;ratioP1;P1;durP2;ratioP2;P2;SDS_P1;SDS_P2;PMS_P1;PMS_P2;Temp;Humidity;BMP_temperature;BMP_pressure;BME280_temperature;BME280_humidity;BME280_pressure;Samples;Min_cycle;Max_cycle;Signal;HPM_P1;HPM_P2
2023/07/26 00:01:51;;;;;;;;;;;20.90;57.00;;;;;;5062973;28;19919;-54
2023/07/26 00:04:16;;;;;;;;;;;20.90;57.10;;;;;;5063314;28;19915;-54
2023/07/26 00:06:42;;;;;;;;;;;20.80;57.20;;;;;;5054824;28;20031;-55
2023/07/26 00:09:08;;;;;;;;;;;20.80;57.20;;;;;;5058159;28;19912;-55
2023/07/26 00:11:33;;;;;;;;;;;20.80;57.20;;;;;;5053578;28;19909;-54
2023/07/26 00:13:59;;;;;;;;;;;20.80;57.20;;;;;;5051363;28;20003;-54
2023/07/26 00:16:24;;;;;;;;;;;20.80;57.30;;;;;;5053728;28;20305;-54
2023/07/26 00:18:50;;;;;;;;;;;20.80;57.20;;;;;;5058607;28;19917;-54
2023/07/26 00:21:15;;;;;;;;;;;20.80;57.40;;;;;;5064967;28;19912;-55
2023/07/26 00:23:41;;;;;;;;;;;20.80;57.30;;;;;;5057566;28;20057;-55
2023/07/26 00:26:06;;;;;;;;;;;20.80;57.40;;;;;;5057516;28;20433;-54
2023/07/26 00:28:32;;;;;;;;;;;20.80;57.40;;;;;;5060100;28;20379;-54
2023/07/26 00:30:57;;;;;;;;;;;20.80;57.40;;;;;;5053140;28;19956;-55
2023/07/26 00:33:23;;;;;;;;;;;20.80;57.30;;;;;;5053913;28;19909;-54
2023/07/26 00:35:48;;;;;;;;;;;20.70;57.30;;;;;;5056467;28;19913;-54
2023/07/26 00:38:14;;;;;;;;;;;20.80;57.40;;;;;;5055838;28;20426;-54
2023/07/26 00:40:39;;;;;;;;;;;20.70;57.40;;;;;;5051340;28;20369;-54
2023/07/26 00:43:08;;;;;;;;;;;20.70;57.50;;;;;;5058770;28;20284;-54
2023/07/26 00:45:34;;;;;;;;;;;20.70;57.40;;;;;;5050710;28;19947;-55
2023/07/26 00:48:00;;;;;;;;;;;20.70;57.40;;;;;;5058530;28;19948;-54
2023/07/26 00:50:25;;;;;;;;;;;20.70;57.40;;;;;;5049915;28;20017;-55
2023/07/26 00:52:51;;;;;;;;;;;20.70;57.50;;;;;;5046861;28;19928;-55
2023/07/26 00:55:16;;;;;;;;;;;20.70;57.40;;;;;;5051251;28;19949;-55
2023/07/26 00:57:42;;;;;;;;;;;20.70;57.50;;;;;;5050650;28;19913;-55
2023/07/26 01:00:08;;;;;;;;;;;20.70;57.40;;;;;;5051050;28;19912;-54
2023/07/26 01:02:33;;;;;;;;;;;20.70;57.50;;;;;;5055090;28;20012;-55
2023/07/26 01:04:58;;;;;;;;;;;20.70;57.40;;;;;;5055731;28;19912;-55
2023/07/26 01:07:27;;;;;;;;;;;20.70;57.50;;;;;;5065879;28;19920;-55
2023/07/26 01:09:53;;;;;;;;;;;20.70;57.50;;;;;;5067018;28;19920;-55
2023/07/26 01:12:19;;;;;;;;;;;20.70;57.60;;;;;;5055390;28;19920;-54
2023/07/26 01:14:45;;;;;;;;;;;20.70;57.60;;;;;;5056187;28;19913;-54
2023/07/26 01:17:10;;;;;;;;;;;20.70;57.60;;;;;;5067899;28;19970;-54
2023/07/26 01:19:36;;;;;;;;;;;20.70;57.60;;;;;;5054726;28;19920;-54
2023/07/26 01:22:01;;;;;;;;;;;20.60;57.70;;;;;;5067080;28;19920;-54
2023/07/26 01:24:26;;;;;;;;;;;20.60;57.60;;;;;;5057239;28;19978;-54
2023/07/26 01:26:52;;;;;;;;;;;20.60;57.60;;;;;;5053548;28;19917;-54
2023/07/26 01:29:17;;;;;;;;;;;20.60;57.50;;;;;;5056395;28;20347;-54
2023/07/26 01:31:43;;;;;;;;;;;20.60;57.60;;;;;;5056492;28;19974;-54
2023/07/26 01:34:08;;;;;;;;;;;20.60;57.60;;;;;;5061720;28;19912;-54
2023/07/26 01:36:34;;;;;;;;;;;20.60;57.70;;;;;;5062208;28;19947;-54
2023/07/26 01:38:59;;;;;;;;;;;20.60;57.60;;;;;;5051439;28;19919;-55
2023/07/26 01:41:25;;;;;;;;;;;20.60;57.70;;;;;;5056305;28;20326;-55
2023/07/26 01:43:50;;;;;;;;;;;20.60;57.60;;;;;;5054005;28;19913;-54
2023/07/26 01:46:16;;;;;;;;;;;20.60;58.20;;;;;;5055710;28;19925;-55
2023/07/26 01:48:41;;;;;;;;;;;20.60;57.60;;;;;;5052904;28;20444;-54
2023/07/26 01:51:07;;;;;;;;;;;20.60;57.50;;;;;;5057653;28;20313;-54
2023/07/26 01:53:32;;;;;;;;;;;20.60;57.60;;;;;;5064253;28;19932;-55
2023/07/26 01:55:58;;;;;;;;;;;20.60;57.60;;;;;;5063511;28;19950;-54
2023/07/26 01:58:24;;;;;;;;;;;20.60;57.70;;;;;;5060410;28;19920;-54
2023/07/26 02:00:49;;;;;;;;;;;20.50;57.70;;;;;;5055519;28;19944;-54
2023/07/26 02:03:15;;;;;;;;;;;20.50;57.70;;;;;;5057750;28;19918;-55
2023/07/26 02:05:44;;;;;;;;;;;20.50;57.80;;;;;;5066815;28;19923;-54
2023/07/26 02:08:09;;;;;;;;;;;20.40;57.80;;;;;;5054767;28;20000;-54
2023/07/26 02:10:35;;;;;;;;;;;20.40;57.90;;;;;;5053748;28;20121;-54
2023/07/26 02:13:00;;;;;;;;;;;20.50;57.90;;;;;;5054655;28;20352;-55
2023/07/26 02:15:26;;;;;;;;;;;20.50;58.00;;;;;;5052448;28;19920;-54
2023/07/26 02:17:51;;;;;;;;;;;20.50;57.90;;;;;;5056533;28;19913;-54
2023/07/26 02:20:17;;;;;;;;;;;20.40;57.80;;;;;;5061686;28;20384;-55
2023/07/26 02:22:42;;;;;;;;;;;20.50;57.90;;;;;;5062806;28;20392;-54
2023/07/26 02:25:07;;;;;;;;;;;20.50;58.50;;;;;;5052414;28;20292;-55
2023/07/26 02:27:33;;;;;;;;;;;20.50;57.90;;;;;;5058773;28;19917;-54
2023/07/26 02:29:58;;;;;;;;;;;20.50;57.80;;;;;;5056413;28;19916;-54
2023/07/26 02:32:24;;;;;;;;;;;20.50;57.80;;;;;;5054516;28;19919;-54
2023/07/26 02:34:49;;;;;;;;;;;20.50;57.80;;;;;;5069229;28;19927;-54
2023/07/26 02:37:15;;;;;;;;;;;20.50;57.80;;;;;;5066745;28;19916;-55
2023/07/26 02:39:40;;;;;;;;;;;20.50;57.90;;;;;;5061273;28;19917;-54
2023/07/26 02:42:06;;;;;;;;;;;20.50;58.50;;;;;;5051728;28;19912;-54
2023/07/26 02:44:31;;;;;;;;;;;20.50;58.00;;;;;;5061364;28;19982;-55
2023/07/26 02:46:57;;;;;;;;;;;20.50;58.00;;;;;;5053074;28;19924;-54
2023/07/26 02:49:22;;;;;;;;;;;20.40;58.00;;;;;;5055206;28;19923;-55
2023/07/26 02:51:48;;;;;;;;;;;20.40;57.90;;;;;;5052086;28;22211;-54
2023/07/26 02:54:13;;;;;;;;;;;20.40;58.10;;;;;;5061976;28;19923;-54
2023/07/26 02:56:39;;;;;;;;;;;20.40;58.10;;;;;;5055020;28;19920;-54
2023/07/26 02:59:04;;;;;;;;;;;20.50;58.10;;;;;;5061347;28;19919;-54
2023/07/26 03:01:29;;;;;;;;;;;20.50;58.00;;;;;;5067007;28;19913;-54
2023/07/26 03:03:55;;;;;;;;;;;20.40;58.00;;;;;;5055012;28;20078;-55
2023/07/26 03:06:20;;;;;;;;;;;20.40;58.10;;;;;;5070482;28;19917;-54
2023/07/26 03:08:46;;;;;;;;;;;20.40;58.10;;;;;;5059022;28;19998;-55
2023/07/26 03:11:12;;;;;;;;;;;20.40;58.10;;;;;;5057218;28;20289;-54
2023/07/26 03:13:37;;;;;;;;;;;20.40;58.20;;;;;;5052396;28;19936;-54
2023/07/26 03:16:03;;;;;;;;;;;20.40;58.20;;;;;;5065390;28;19916;-54
2023/07/26 03:18:28;;;;;;;;;;;20.40;58.20;;;;;;5061043;28;20445;-54
2023/07/26 03:20:54;;;;;;;;;;;20.40;58.20;;;;;;5052568;28;19912;-54
2023/07/26 03:23:19;;;;;;;;;;;20.40;58.20;;;;;;5056096;28;19913;-54
2023/07/26 03:25:45;;;;;;;;;;;20.40;58.30;;;;;;5059177;28;19951;-54
2023/07/26 03:28:10;;;;;;;;;;;20.40;58.30;;;;;;5051850;28;19952;-54
2023/07/26 03:30:35;;;;;;;;;;;20.40;58.20;;;;;;5052203;28;20289;-54
2023/07/26 03:33:01;;;;;;;;;;;20.40;58.30;;;;;;5050301;28;19959;-55
2023/07/26 03:35:26;;;;;;;;;;;20.40;58.20;;;;;;5055892;28;19919;-54
2023/07/26 03:37:52;;;;;;;;;;;20.40;58.30;;;;;;5057202;28;19912;-54
2023/07/26 03:40:19;;;;;;;;;;;20.40;58.30;;;;;;5053242;28;19956;-54
2023/07/26 03:42:45;;;;;;;;;;;20.40;59.00;;;;;;5054341;28;19923;-54
2023/07/26 03:45:10;;;;;;;;;;;20.40;58.30;;;;;;5056077;28;19924;-54
2023/07/26 03:47:36;;;;;;;;;;;20.40;58.40;;;;;;5054317;28;19916;-54
2023/07/26 03:50:01;;;;;;;;;;;20.40;58.40;;;;;;5051751;28;19983;-54
2023/07/26 03:52:26;;;;;;;;;;;20.40;58.40;;;;;;5055257;28;19938;-55
2023/07/26 03:54:53;;;;;;;;;;;20.30;58.30;;;;;;5057584;28;19918;-54
2023/07/26 03:57:18;;;;;;;;;;;20.40;58.40;;;;;;5060678;28;19916;-54
2023/07/26 03:59:44;;;;;;;;;;;20.30;58.40;;;;;;5055129;28;19982;-54
2023/07/26 04:02:09;;;;;;;;;;;20.30;58.40;;;;;;5055299;28;19944;-55
2023/07/26 04:04:35;;;;;;;;;;;20.30;58.60;;;;;;5054348;28;19920;-55
2023/07/26 04:07:01;;;;;;;;;;;20.40;58.60;;;;;;5062235;28;19978;-55
2023/07/26 04:09:27;;;;;;;;;;;20.40;58.50;;;;;;5051867;28;19917;-54
2023/07/26 04:11:53;;;;;;;;;;;20.30;58.40;;;;;;5055622;28;19978;-54
2023/07/26 04:14:19;;;;;;;;;;;20.30;58.50;;;;;;5060375;28;19935;-54
2023/07/26 04:16:44;;;;;;;;;;;20.30;58.60;;;;;;5052395;28;19917;-54
2023/07/26 04:19:10;;;;;;;;;;;20.30;58.60;;;;;;5065886;28;19917;-54
2023/07/26 04:21:35;;;;;;;;;;;20.30;58.60;;;;;;5055060;28;20440;-55
2023/07/26 04:24:00;;;;;;;;;;;20.40;58.60;;;;;;5053440;28;20309;-54
2023/07/26 04:26:26;;;;;;;;;;;20.30;58.50;;;;;;5054282;28;20348;-54
2023/07/26 04:28:51;;;;;;;;;;;20.30;58.60;;;;;;5054695;28;19912;-54
2023/07/26 04:31:17;;;;;;;;;;;20.30;58.70;;;;;;5058278;28;19920;-55
2023/07/26 04:33:42;;;;;;;;;;;20.30;58.70;;;;;;5052649;28;19964;-55
2023/07/26 04:36:08;;;;;;;;;;;20.30;58.70;;;;;;5050522;28;19917;-54
2023/07/26 04:38:33;;;;;;;;;;;20.20;58.80;;;;;;5052083;28;20281;-54
2023/07/26 04:40:59;;;;;;;;;;;20.20;58.80;;;;;;5055812;28;19920;-54
2023/07/26 04:43:24;;;;;;;;;;;20.30;58.80;;;;;;5054776;28;20011;-54
2023/07/26 04:45:50;;;;;;;;;;;20.30;58.80;;;;;;5061272;28;19916;-54
2023/07/26 04:48:19;;;;;;;;;;;20.30;58.70;;;;;;5065515;28;19971;-54
2023/07/26 04:50:45;;;;;;;;;;;20.30;58.70;;;;;;5068550;28;19928;-54
2023/07/26 04:53:10;;;;;;;;;;;20.30;58.60;;;;;;5062215;28;19927;-54
2023/07/26 04:55:42;;;;;;;;;;;20.30;58.70;;;;;;5065375;28;20285;-54
2023/07/26 04:58:08;;;;;;;;;;;20.30;58.70;;;;;;5056541;28;19948;-54
2023/07/26 05:00:33;;;;;;;;;;;20.30;58.80;;;;;;5057489;28;20356;-54
2023/07/26 05:02:58;;;;;;;;;;;20.30;58.80;;;;;;5054876;28;20423;-54
2023/07/26 05:05:24;;;;;;;;;;;20.30;58.80;;;;;;5060005;28;20300;-54
2023/07/26 05:07:49;;;;;;;;;;;20.30;58.90;;;;;;5060598;28;19919;-54
2023/07/26 05:10:15;;;;;;;;;;;20.20;58.90;;;;;;5060507;28;19967;-54
2023/07/26 05:12:40;;;;;;;;;;;20.20;59.00;;;;;;5059762;28;20300;-54
2023/07/26 05:15:06;;;;;;;;;;;20.20;59.10;;;;;;5055296;28;20389;-55
2023/07/26 05:17:31;;;;;;;;;;;20.20;59.10;;;;;;5054756;28;20301;-54
2023/07/26 05:19:58;;;;;;;;;;;20.20;59.10;;;;;;5061302;28;19920;-55
2023/07/26 05:22:24;;;;;;;;;;;20.20;59.00;;;;;;5055853;28;19932;-54
2023/07/26 05:24:49;;;;;;;;;;;20.30;59.60;;;;;;5057279;28;19916;-55
2023/07/26 05:27:14;;;;;;;;;;;20.30;59.00;;;;;;5058509;28;19956;-54
2023/07/26 05:29:40;;;;;;;;;;;20.30;59.00;;;;;;5066545;28;19916;-54
2023/07/26 05:32:06;;;;;;;;;;;20.30;59.00;;;;;;5054575;28;20388;-54
2023/07/26 05:34:31;;;;;;;;;;;20.30;59.10;;;;;;5054916;28;20703;-54
2023/07/26 05:36:57;;;;;;;;;;;20.30;59.20;;;;;;5059872;28;19912;-54
2023/07/26 05:39:22;;;;;;;;;;;20.20;59.10;;;;;;5054312;28;19912;-54
2023/07/26 05:41:48;;;;;;;;;;;20.20;59.10;;;;;;5060511;28;19917;-54
2023/07/26 05:44:13;;;;;;;;;;;20.30;59.20;;;;;;5054439;28;19921;-54
2023/07/26 05:46:39;;;;;;;;;;;20.30;59.20;;;;;;5054958;28;19916;-54
2023/07/26 05:49:04;;;;;;;;;;;20.30;59.20;;;;;;5059204;28;19919;-54
2023/07/26 05:51:30;;;;;;;;;;;20.20;59.20;;;;;;5056055;28;19927;-54
2023/07/26 05:53:55;;;;;;;;;;;20.30;59.30;;;;;;5055984;28;19912;-55
2023/07/26 05:56:21;;;;;;;;;;;20.20;59.30;;;;;;5054390;28;19943;-54
2023/07/26 05:58:46;;;;;;;;;;;20.20;59.40;;;;;;5066923;28;19909;-54
2023/07/26 06:01:12;;;;;;;;;;;20.20;59.30;;;;;;5056081;28;19917;-54
2023/07/26 06:03:38;;;;;;;;;;;20.30;59.50;;;;;;5062786;28;19912;-54
2023/07/26 06:06:04;;;;;;;;;;;20.30;59.50;;;;;;5063529;28;19913;-54
2023/07/26 06:08:29;;;;;;;;;;;20.30;59.50;;;;;;5060438;28;19970;-54
2023/07/26 06:10:55;;;;;;;;;;;20.30;60.20;;;;;;5056289;28;19917;-54
2023/07/26 06:13:20;;;;;;;;;;;20.30;59.50;;;;;;5053290;28;19917;-55
2023/07/26 06:15:46;;;;;;;;;;;20.30;59.50;;;;;;5051488;28;20266;-54
2023/07/26 06:18:11;;;;;;;;;;;20.30;59.50;;;;;;5056955;28;20285;-55
2023/07/26 06:20:37;;;;;;;;;;;20.30;59.60;;;;;;5054483;28;19974;-54
2023/07/26 06:23:02;;;;;;;;;;;20.30;59.60;;;;;;5063618;28;19924;-55
2023/07/26 06:25:28;;;;;;;;;;;20.30;59.60;;;;;;5059876;28;20003;-54
2023/07/26 06:27:53;;;;;;;;;;;20.30;59.60;;;;;;5058613;28;19920;-54
2023/07/26 06:30:18;;;;;;;;;;;20.30;59.60;;;;;;5055288;28;19916;-54
2023/07/26 06:32:44;;;;;;;;;;;20.20;59.70;;;;;;5053635;28;19923;-54
2023/07/26 06:35:09;;;;;;;;;;;20.30;59.70;;;;;;5052672;28;20024;-54
2023/07/26 06:37:35;;;;;;;;;;;20.20;59.70;;;;;;5057098;28;19924;-55
2023/07/26 06:40:01;;;;;;;;;;;20.20;59.70;;;;;;5052510;28;19920;-55
2023/07/26 06:42:26;;;;;;;;;;;20.30;59.90;;;;;;5054250;28;19913;-55
2023/07/26 06:44:52;;;;;;;;;;;20.30;59.80;;;;;;5054009;28;19913;-55
2023/07/26 06:47:17;;;;;;;;;;;20.30;59.80;;;;;;5055533;28;19956;-54
2023/07/26 06:49:43;;;;;;;;;;;20.30;59.80;;;;;;5050891;28;20393;-55
2023/07/26 06:52:09;;;;;;;;;;;20.30;59.80;;;;;;5051346;28;20270;-55
2023/07/26 06:54:35;;;;;;;;;;;20.30;59.80;;;;;;5052797;28;20317;-54
2023/07/26 06:57:01;;;;;;;;;;;20.30;59.80;;;;;;5066289;28;19912;-54
2023/07/26 06:59:26;;;;;;;;;;;20.30;59.80;;;;;;5059538;28;20049;-54
2023/07/26 07:01:52;;;;;;;;;;;20.40;59.90;;;;;;5053469;28;19912;-54
2023/07/26 07:04:17;;;;;;;;;;;20.40;59.80;;;;;;5054788;28;19917;-54
2023/07/26 07:06:43;;;;;;;;;;;20.40;59.80;;;;;;5052729;28;20025;-55
2023/07/26 07:09:08;;;;;;;;;;;20.30;59.70;;;;;;5053458;28;20378;-56
2023/07/26 07:11:34;;;;;;;;;;;20.40;59.80;;;;;;5059271;28;19916;-54
2023/07/26 07:13:59;;;;;;;;;;;20.40;59.90;;;;;;5052271;28;19967;-55
2023/07/26 07:16:25;;;;;;;;;;;20.40;60.00;;;;;;5055668;28;19912;-55
2023/07/26 07:18:50;;;;;;;;;;;20.40;60.10;;;;;;5053007;28;20008;-54
2023/07/26 07:21:15;;;;;;;;;;;20.30;60.20;;;;;;5055400;28;20345;-55
2023/07/26 07:23:41;;;;;;;;;;;20.30;60.20;;;;;;5064487;28;20364;-55
2023/07/26 07:26:06;;;;;;;;;;;20.30;60.30;;;;;;5062239;28;20380;-55
2023/07/26 07:28:32;;;;;;;;;;;20.30;61.10;;;;;;5051215;28;19955;-54
2023/07/26 07:30:57;;;;;;;;;;;20.30;60.20;;;;;;5055045;28;19927;-54
2023/07/26 07:33:23;;;;;;;;;;;20.30;60.20;;;;;;5059240;28;19927;-54
2023/07/26 07:35:48;;;;;;;;;;;20.40;60.20;;;;;;5056312;28;20016;-54
2023/07/26 07:38:14;;;;;;;;;;;20.40;60.10;;;;;;5076090;28;19917;-54
2023/07/26 07:40:39;;;;;;;;;;;20.40;60.10;;;;;;5060573;28;19920;-55
2023/07/26 07:43:04;;;;;;;;;;;20.40;60.20;;;;;;5062882;28;19913;-55
2023/07/26 07:45:30;;;;;;;;;;;20.40;60.10;;;;;;5052473;28;19917;-55
2023/07/26 07:47:55;;;;;;;;;;;20.40;60.00;;;;;;5057135;28;19920;-54
2023/07/26 07:50:21;;;;;;;;;;;20.40;59.90;;;;;;5056165;28;19921;-55
2023/07/26 07:52:48;;;;;;;;;;;20.40;59.80;;;;;;5054917;28;21234;-54
2023/07/26 07:55:14;;;;;;;;;;;20.40;59.80;;;;;;5051442;28;19916;-55
2023/07/26 07:57:40;;;;;;;;;;;20.40;59.80;;;;;;5051140;28;19912;-54
2023/07/26 08:00:07;;;;;;;;;;;20.40;59.80;;;;;;5050410;28;20298;-55
2023/07/26 08:02:33;;;;;;;;;;;20.40;59.90;;;;;;5051533;28;20400;-54
2023/07/26 08:04:58;;;;;;;;;;;20.40;59.80;;;;;;5055954;28;19916;-55
2023/07/26 08:07:23;;;;;;;;;;;20.40;59.80;;;;;;5054511;28;19912;-55
2023/07/26 08:09:49;;;;;;;;;;;20.40;59.80;;;;;;5056690;28;19921;-54
2023/07/26 08:12:15;;;;;;;;;;;20.40;59.80;;;;;;5058744;28;19938;-54
2023/07/26 08:14:40;;;;;;;;;;;20.40;59.60;;;;;;5053882;28;19913;-54
2023/07/26 08:17:06;;;;;;;;;;;20.40;59.70;;;;;;5053565;28;19913;-53
2023/07/26 08:19:31;;;;;;;;;;;20.50;59.70;;;;;;5052293;28;19924;-55
2023/07/26 08:21:57;;;;;;;;;;;20.50;59.60;;;;;;5057586;28;19923;-55
2023/07/26 08:24:22;;;;;;;;;;;20.40;59.50;;;;;;5051076;28;20305;-55
2023/07/26 08:26:48;;;;;;;;;;;20.40;59.40;;;;;;5056960;28;19942;-55
2023/07/26 08:29:13;;;;;;;;;;;20.50;59.30;;;;;;5053992;28;19913;-55
2023/07/26 08:31:39;;;;;;;;;;;20.50;59.30;;;;;;5059285;28;20538;-54
2023/07/26 08:34:04;;;;;;;;;;;20.50;59.20;;;;;;5058447;28;19920;-56
2023/07/26 08:36:29;;;;;;;;;;;20.50;59.10;;;;;;5048956;28;19933;-55
2023/07/26 08:38:55;;;;;;;;;;;20.50;58.90;;;;;;5052634;28;19913;-55
2023/07/26 08:41:20;;;;;;;;;;;20.50;59.00;;;;;;5060150;28;20061;-55
2023/07/26 08:43:46;;;;;;;;;;;20.40;58.70;;;;;;5055178;28;19913;-55
2023/07/26 08:46:12;;;;;;;;;;;20.40;58.40;;;;;;5049333;28;20301;-55
2023/07/26 08:48:37;;;;;;;;;;;20.50;58.20;;;;;;5048952;28;19921;-54
2023/07/26 08:51:03;;;;;;;;;;;20.40;58.10;;;;;;5054652;28;20011;-54
2023/07/26 08:53:28;;;;;;;;;;;20.40;58.00;;;;;;5054446;28;19913;-54
2023/07/26 08:55:54;;;;;;;;;;;20.40;57.80;;;;;;5066885;28;19923;-54
2023/07/26 08:58:19;;;;;;;;;;;20.40;57.50;;;;;;5051295;28;19955;-54
2023/07/26 09:00:45;;;;;;;;;;;20.40;57.40;;;;;;5060945;28;19916;-54
2023/07/26 09:03:10;;;;;;;;;;;20.40;57.30;;;;;;5052073;28;19920;-55
2023/07/26 09:05:36;;;;;;;;;;;20.40;56.90;;;;;;5050924;28;19968;-55
2023/07/26 09:08:01;;;;;;;;;;;20.40;56.80;;;;;;5048712;28;19928;-55
2023/07/26 09:10:28;;;;;;;;;;;20.40;56.70;;;;;;5052816;28;19921;-55
2023/07/26 09:13:06;;;;;;;;;;;20.40;56.70;;;;;;5046790;28;20350;-55
2023/07/26 09:15:37;;;;;;;;;;;20.40;56.60;;;;;;5046371;28;19921;-55
2023/07/26 09:18:04;;;;;;;;;;;20.50;56.50;;;;;;5059988;28;19921;-55
2023/07/26 09:20:30;;;;;;;;;;;20.40;56.40;;;;;;5053858;28;19923;-55
2023/07/26 09:23:05;;;;;;;;;;;20.40;56.30;;;;;;5050227;28;19913;-55
2023/07/26 09:25:31;;;;;;;;;;;20.40;56.30;;;;;;5058942;28;20320;-54
2023/07/26 09:27:58;;;;;;;;;;;20.50;56.40;;;;;;5053476;28;19927;-54
2023/07/26 09:30:24;;;;;;;;;;;20.50;56.30;;;;;;5054558;28;19916;-55
2023/07/26 09:32:49;;;;;;;;;;;20.50;56.10;;;;;;5060656;28;19912;-55
2023/07/26 09:35:15;;;;;;;;;;;20.50;56.10;;;;;;5062755;28;19920;-54
2023/07/26 09:37:40;;;;;;;;;;;20.50;56.00;;;;;;5052670;28;19999;-54
2023/07/26 09:40:06;;;;;;;;;;;20.50;56.00;;;;;;5059061;28;19919;-54
2023/07/26 09:42:42;;;;;;;;;;;20.60;55.90;;;;;;5054042;28;19913;-55
2023/07/26 09:45:09;;;;;;;;;;;20.60;55.90;;;;;;5061213;28;20371;-54
2023/07/26 09:47:35;;;;;;;;;;;20.50;55.90;;;;;;5066100;28;20350;-54
2023/07/26 09:50:01;;;;;;;;;;;20.60;56.00;;;;;;5055306;28;19916;-56
2023/07/26 09:52:26;;;;;;;;;;;20.60;56.00;;;;;;5056386;28;19913;-54
2023/07/26 09:54:52;;;;;;;;;;;20.60;55.70;;;;;;5060757;28;19917;-55
2023/07/26 09:57:17;;;;;;;;;;;20.60;55.50;;;;;;5055803;28;19913;-55
2023/07/26 09:59:42;;;;;;;;;;;20.60;55.50;;;;;;5057298;28;19921;-54
2023/07/26 10:02:11;;;;;;;;;;;20.70;55.40;;;;;;5077480;28;20312;-54
2023/07/26 10:04:45;;;;;;;;;;;20.70;55.60;;;;;;5054587;28;19917;-54
2023/07/26 10:07:11;;;;;;;;;;;20.70;55.60;;;;;;5062478;28;20342;-54
2023/07/26 10:09:39;;;;;;;;;;;20.60;55.50;;;;;;5058470;28;19913;-54
2023/07/26 10:12:05;;;;;;;;;;;20.60;55.40;;;;;;5062302;28;19912;-55
2023/07/26 10:14:31;;;;;;;;;;;20.70;55.40;;;;;;5055386;28;19919;-53
2023/07/26 10:16:56;;;;;;;;;;;20.70;55.40;;;;;;5049067;28;20438;-55
2023/07/26 10:19:22;;;;;;;;;;;20.70;54.80;;;;;;5054996;28;19917;-54
2023/07/26 10:21:48;;;;;;;;;;;20.70;55.40;;;;;;5054550;28;19924;-54
2023/07/26 10:24:14;;;;;;;;;;;20.80;55.20;;;;;;5054945;28;20404;-54
2023/07/26 10:26:39;;;;;;;;;;;20.80;55.10;;;;;;5055415;28;20030;-54
2023/07/26 10:29:05;;;;;;;;;;;20.90;55.00;;;;;;5055304;28;19936;-54
2023/07/26 10:31:31;;;;;;;;;;;20.80;54.90;;;;;;5057178;28;19916;-54
2023/07/26 10:33:56;;;;;;;;;;;20.80;55.10;;;;;;5053790;28;19912;-54
2023/07/26 10:36:31;;;;;;;;;;;20.80;54.90;;;;;;5058697;28;20289;-54
2023/07/26 10:39:01;;;;;;;;;;;20.80;54.80;;;;;;5053272;28;19967;-54
2023/07/26 10:41:27;;;;;;;;;;;20.80;54.60;;;;;;5060861;28;20336;-54
2023/07/26 10:44:03;;;;;;;;;;;20.80;54.90;;;;;;5062756;28;19963;-54
2023/07/26 10:46:28;;;;;;;;;;;20.90;54.90;;;;;;5060670;28;19924;-54
2023/07/26 10:48:54;;;;;;;;;;;20.90;54.80;;;;;;5055337;28;20345;-54
2023/07/26 10:51:26;;;;;;;;;;;20.90;54.90;;;;;;5064237;28;20298;-54
2023/07/26 10:53:55;;;;;;;;;;;20.80;54.90;;;;;;5059628;28;20324;-54
2023/07/26 10:56:30;;;;;;;;;;;20.80;54.60;;;;;;5055030;28;19913;-54
2023/07/26 10:58:56;;;;;;;;;;;20.80;55.00;;;;;;5070247;28;19912;-54
2023/07/26 11:01:37;;;;;;;;;;;20.80;54.90;;;;;;5052424;28;19909;-54
2023/07/26 11:04:23;;;;;;;;;;;20.80;54.90;;;;;;5052258;28;19912;-54
2023/07/26 11:06:58;;;;;;;;;;;20.70;54.80;;;;;;5059430;28;19978;-54
2023/07/26 11:09:27;;;;;;;;;;;20.80;55.30;;;;;;5058957;28;20292;-54
2023/07/26 11:11:53;;;;;;;;;;;20.80;54.70;;;;;;5060505;28;20289;-54
2023/07/26 11:14:18;;;;;;;;;;;20.90;54.60;;;;;;5049047;28;19919;-54
2023/07/26 11:16:43;;;;;;;;;;;20.90;54.50;;;;;;5056499;28;20380;-54
2023/07/26 11:19:09;;;;;;;;;;;21.00;54.60;;;;;;5051869;28;19939;-54
2023/07/26 11:21:35;;;;;;;;;;;21.00;54.40;;;;;;5052503;28;19913;-54
2023/07/26 11:24:01;;;;;;;;;;;20.90;54.50;;;;;;5051459;28;19916;-54
2023/07/26 11:26:26;;;;;;;;;;;21.00;54.30;;;;;;5052632;28;19909;-54
2023/07/26 11:28:52;;;;;;;;;;;21.00;54.40;;;;;;5064856;28;20306;-54
2023/07/26 11:31:17;;;;;;;;;;;21.00;54.30;;;;;;5060201;28;20350;-54
2023/07/26 11:33:44;;;;;;;;;;;21.00;54.20;;;;;;5060493;28;19917;-55
2023/07/26 11:36:13;;;;;;;;;;;21.00;54.30;;;;;;5056391;28;20031;-55
2023/07/26 11:38:42;;;;;;;;;;;21.00;53.90;;;;;;5050075;28;20007;-54
2023/07/26 11:41:08;;;;;;;;;;;21.00;53.90;;;;;;5051326;28;19915;-54
2023/07/26 11:43:33;;;;;;;;;;;21.00;53.80;;;;;;5051832;28;20287;-54
2023/07/26 11:45:59;;;;;;;;;;;21.00;54.10;;;;;;5057946;28;19923;-54
2023/07/26 11:48:25;;;;;;;;;;;20.90;53.90;;;;;;5063888;28;20395;-54
2023/07/26 11:50:53;;;;;;;;;;;20.80;53.70;;;;;;5051611;28;19924;-54
2023/07/26 11:53:19;;;;;;;;;;;20.80;54.00;;;;;;5057260;28;19913;-54
2023/07/26 11:55:44;;;;;;;;;;;20.80;53.90;;;;;;5052472;28;19913;-54
2023/07/26 11:58:10;;;;;;;;;;;20.80;53.80;;;;;;5049807;28;19913;-55
2023/07/26 12:00:36;;;;;;;;;;;20.90;53.70;;;;;;5057577;28;19912;-54
2023/07/26 12:03:02;;;;;;;;;;;20.80;54.00;;;;;;5059222;28;19920;-55
2023/07/26 12:05:28;;;;;;;;;;;20.80;54.00;;;;;;5054226;28;19912;-54
2023/07/26 12:07:58;;;;;;;;;;;20.90;53.80;;;;;;5049853;28;19952;-54
2023/07/26 12:10:29;;;;;;;;;;;20.80;53.80;;;;;;5051224;28;19942;-54
2023/07/26 12:12:55;;;;;;;;;;;20.90;53.80;;;;;;5051537;28;20000;-55
2023/07/26 12:15:20;;;;;;;;;;;20.90;54.10;;;;;;5051730;28;19945;-55
2023/07/26 12:17:53;;;;;;;;;;;20.90;54.10;;;;;;5050888;28;19939;-54
2023/07/26 12:20:18;;;;;;;;;;;20.90;54.20;;;;;;5058291;28;19999;-55
2023/07/26 12:22:50;;;;;;;;;;;20.90;54.70;;;;;;5049454;28;20029;-54
2023/07/26 12:25:16;;;;;;;;;;;20.90;54.90;;;;;;5050800;28;20472;-55
2023/07/26 12:27:41;;;;;;;;;;;20.90;55.70;;;;;;5049654;28;19995;-54
2023/07/26 12:30:13;;;;;;;;;;;21.00;55.80;;;;;;5051290;28;19914;-54
2023/07/26 12:32:38;;;;;;;;;;;21.10;55.80;;;;;;5053785;28;20376;-55
2023/07/26 12:35:23;;;;;;;;;;;21.20;55.30;;;;;;5053822;28;19915;-55
2023/07/26 12:37:52;;;;;;;;;;;21.10;55.00;;;;;;5050762;28;20015;-54
2023/07/26 12:40:19;;;;;;;;;;;21.10;55.40;;;;;;5053870;28;19916;-54
2023/07/26 12:42:44;;;;;;;;;;;21.00;55.30;;;;;;5050628;28;20365;-54
2023/07/26 12:45:09;;;;;;;;;;;21.00;55.40;;;;;;5050924;28;19913;-55
2023/07/26 12:47:35;;;;;;;;;;;21.00;55.60;;;;;;5050912;28;19928;-54
2023/07/26 12:50:00;;;;;;;;;;;21.00;55.60;;;;;;5050812;28;20011;-55
2023/07/26 12:52:26;;;;;;;;;;;21.00;55.60;;;;;;5050237;28;19912;-55
2023/07/26 12:54:51;;;;;;;;;;;21.00;55.80;;;;;;5051646;28;20070;-54
2023/07/26 12:57:17;;;;;;;;;;;20.90;55.70;;;;;;5055130;28;19960;-55
2023/07/26 12:59:42;;;;;;;;;;;20.90;55.70;;;;;;5055989;28;20289;-55
2023/07/26 13:02:07;;;;;;;;;;;20.90;55.70;;;;;;5056319;28;19994;-55
2023/07/26 13:04:33;;;;;;;;;;;21.00;55.90;;;;;;5054822;28;19982;-55
2023/07/26 13:06:58;;;;;;;;;;;21.00;55.80;;;;;;5054884;28;19920;-55
2023/07/26 13:09:24;;;;;;;;;;;21.00;55.80;;;;;;5063850;28;20270;-54
2023/07/26 13:11:49;;;;;;;;;;;21.10;56.10;;;;;;5063128;28;19952;-55
2023/07/26 13:14:15;;;;;;;;;;;21.00;55.90;;;;;;5053674;28;20536;-54
2023/07/26 13:16:40;;;;;;;;;;;21.00;56.80;;;;;;5054997;28;20012;-53
2023/07/26 13:19:06;;;;;;;;;;;21.00;56.20;;;;;;5054351;28;19912;-54
2023/07/26 13:21:31;;;;;;;;;;;21.10;56.50;;;;;;5059557;28;19912;-54
2023/07/26 13:23:57;;;;;;;;;;;21.10;56.10;;;;;;5055424;28;19928;-54
2023/07/26 13:26:22;;;;;;;;;;;21.10;56.40;;;;;;5059738;28;20005;-53
2023/07/26 13:28:48;;;;;;;;;;;21.20;56.30;;;;;;5061486;28;19917;-53
2023/07/26 13:31:13;;;;;;;;;;;21.20;56.10;;;;;;5064656;28;19965;-54
2023/07/26 13:33:39;;;;;;;;;;;21.20;56.10;;;;;;5060576;28;20381;-54
2023/07/26 13:36:04;;;;;;;;;;;21.10;55.90;;;;;;5069811;28;19917;-53
2023/07/26 13:38:30;;;;;;;;;;;21.10;55.90;;;;;;5067817;28;19999;-54
2023/07/26 13:40:55;;;;;;;;;;;21.10;55.90;;;;;;5054394;28;19916;-53
2023/07/26 13:43:20;;;;;;;;;;;21.10;55.90;;;;;;5053663;28;19908;-54
2023/07/26 13:45:46;;;;;;;;;;;21.20;56.00;;;;;;5068324;28;19999;-53
2023/07/26 13:48:11;;;;;;;;;;;21.20;56.00;;;;;;5058901;28;19970;-54
2023/07/26 13:50:37;;;;;;;;;;;21.20;56.00;;;;;;5062894;28;19971;-53
2023/07/26 13:53:02;;;;;;;;;;;21.40;56.10;;;;;;5053658;28;19921;-54
2023/07/26 13:55:28;;;;;;;;;;;21.40;55.80;;;;;;5058559;28;19916;-54
2023/07/26 13:57:53;;;;;;;;;;;21.50;55.90;;;;;;5061367;28;19917;-53
2023/07/26 14:00:19;;;;;;;;;;;21.50;55.90;;;;;;5059312;28;19913;-54
2023/07/26 14:02:44;;;;;;;;;;;21.50;55.70;;;;;;5061215;28;19959;-54
2023/07/26 14:05:09;;;;;;;;;;;21.60;55.60;;;;;;5059675;28;19916;-52
2023/07/26 14:07:35;;;;;;;;;;;21.60;55.70;;;;;;5053893;28;20300;-53
2023/07/26 14:10:00;;;;;;;;;;;21.60;55.60;;;;;;5057169;28;20320;-54